createdAt,value
2022-10-18T00:00:28.873Z,1.97
2022-10-18T00:03:38.153Z,1.87
2022-10-18T00:06:48.232Z,1.70
2022-10-18T00:09:56.693Z,2.00
2022-10-18T00:13:05.197Z,2.30
2022-10-18T00:16:15.390Z,2.10
2022-10-18T00:19:26.035Z,2.30
2022-10-18T00:22:40.234Z,2.10
2022-10-18T00:25:48.668Z,2.53
2022-10-18T00:28:59.342Z,2.20
2022-10-18T00:32:07.924Z,2.07
2022-10-18T00:35:16.479Z,2.20
2022-10-18T00:38:26.423Z,2.17
2022-10-18T00:41:37.993Z,1.67
2022-10-18T00:45:07.580Z,2.43
2022-10-18T00:48:17.819Z,1.97
2022-10-18T00:51:30.117Z,2.60
2022-10-18T00:54:42.699Z,2.10
2022-10-18T00:57:52.241Z,1.97
2022-10-18T01:01:00.767Z,1.87
2022-10-18T01:04:09.425Z,1.80
2022-10-18T01:07:31.040Z,2.00
2022-10-18T01:10:46.472Z,2.00
2022-10-18T01:14:08.762Z,1.70
2022-10-18T01:17:20.423Z,2.00
2022-10-18T01:20:55.706Z,2.20
2022-10-18T01:24:46.130Z,2.00
2022-10-18T01:28:03.561Z,1.73
2022-10-18T01:31:16.298Z,1.60
2022-10-18T01:34:27.318Z,1.70
2022-10-18T01:37:37.085Z,2.13
2022-10-18T01:40:49.105Z,1.70
2022-10-18T01:44:00.953Z,1.90
2022-10-18T01:47:14.607Z,2.17
2022-10-18T01:50:31.147Z,1.90
2022-10-18T01:53:39.620Z,2.30
2022-10-18T01:56:54.940Z,1.67
2022-10-18T02:00:07.344Z,2.13
2022-10-18T02:03:28.224Z,2.23
2022-10-18T02:06:41.702Z,1.73
2022-10-18T02:09:56.733Z,2.23
2022-10-18T02:13:05.267Z,2.10
2022-10-18T02:16:18.212Z,2.43
2022-10-18T02:19:33.927Z,2.23
2022-10-18T02:22:46.088Z,2.57
2022-10-18T02:25:55.274Z,2.07
2022-10-18T02:29:03.923Z,2.07
2022-10-18T02:32:18.443Z,2.53
2022-10-18T02:35:32.227Z,2.43
2022-10-18T02:38:42.673Z,2.10
2022-10-18T02:41:51.231Z,2.17
2022-10-18T02:44:59.669Z,1.90
2022-10-18T02:48:08.795Z,2.20
2022-10-18T02:51:18.675Z,1.97
2022-10-18T02:54:27.157Z,1.80
2022-10-18T02:57:36.312Z,2.20
2022-10-18T03:00:44.845Z,2.57
2022-10-18T03:03:53.343Z,2.17
2022-10-18T03:07:03.178Z,1.87
2022-10-18T03:10:11.685Z,1.97
2022-10-18T03:13:20.436Z,1.80
2022-10-18T03:16:28.865Z,2.20
2022-10-18T03:19:38.696Z,1.70
2022-10-18T03:22:48.512Z,1.57
2022-10-18T03:25:57.042Z,1.80
2022-10-18T03:29:06.448Z,1.53
2022-10-18T03:32:14.928Z,1.50
2022-10-18T03:35:23.456Z,2.37
2022-10-18T03:38:33.330Z,1.50
2022-10-18T03:41:41.787Z,2.07
2022-10-18T03:44:50.255Z,2.33
2022-10-18T03:47:58.738Z,1.90
2022-10-18T03:51:07.461Z,1.50
2022-10-18T03:54:17.314Z,1.93
2022-10-18T03:57:25.771Z,1.83
2022-10-18T04:00:34.335Z,2.23
2022-10-18T04:03:42.739Z,2.10
2022-10-18T04:06:51.163Z,2.00
2022-10-18T04:10:01.137Z,2.13
2022-10-18T04:13:10.035Z,2.50
2022-10-18T04:16:18.463Z,2.27
2022-10-18T04:19:27.807Z,1.90
2022-10-18T04:22:36.431Z,1.87
2022-10-18T04:25:46.254Z,1.90
2022-10-18T04:28:54.788Z,1.50
2022-10-18T04:32:03.363Z,1.93
2022-10-18T04:35:12.067Z,1.70
2022-10-18T04:38:21.185Z,1.80
2022-10-18T04:41:31.065Z,2.57
2022-10-18T04:44:39.713Z,1.87
2022-10-18T04:47:48.095Z,1.63
2022-10-18T04:50:56.608Z,1.80
2022-10-18T04:54:05.129Z,2.20
2022-10-18T04:57:14.995Z,1.80
2022-10-18T05:00:23.559Z,2.13
2022-10-18T05:03:31.958Z,2.20
2022-10-18T05:06:40.427Z,1.97
2022-10-18T05:09:48.838Z,1.40
2022-10-18T05:12:58.812Z,1.90
2022-10-18T05:16:08.151Z,1.90
2022-10-18T05:19:16.646Z,1.70
2022-10-18T05:22:25.082Z,1.90
2022-10-18T05:25:33.535Z,1.70
2022-10-18T05:28:43.483Z,1.60
2022-10-18T05:31:52.066Z,1.83
2022-10-18T05:35:00.566Z,1.73
2022-10-18T05:38:09.040Z,1.97
2022-10-18T05:41:17.532Z,1.83
2022-10-18T05:44:27.672Z,1.83
2022-10-18T05:50:49.478Z,1.97
2022-10-18T05:53:58.799Z,1.37
2022-10-18T05:57:07.244Z,1.70
2022-10-18T06:00:17.270Z,1.83
2022-10-18T06:03:25.904Z,2.33
2022-10-18T06:06:34.850Z,2.03
2022-10-18T06:09:43.334Z,2.57
2022-10-18T06:12:51.991Z,1.90
2022-10-18T06:16:01.855Z,1.60
2022-10-18T06:19:10.288Z,1.53
2022-10-18T06:22:18.753Z,1.60
2022-10-18T06:25:27.287Z,1.77
2022-10-18T06:28:36.993Z,1.77
2022-10-18T06:31:46.831Z,2.10
2022-10-18T06:34:55.245Z,1.90
2022-10-18T06:38:03.654Z,2.40
2022-10-18T06:41:12.336Z,2.10
2022-10-18T06:44:20.892Z,1.90
2022-10-18T06:47:30.735Z,1.90
2022-10-18T06:50:39.216Z,1.43
2022-10-18T06:53:59.566Z,1.97
2022-10-18T06:57:16.081Z,1.83
2022-10-18T07:00:24.588Z,1.63
2022-10-18T07:03:35.434Z,1.67
2022-10-18T07:06:43.858Z,1.80
2022-10-18T07:09:52.258Z,1.70
2022-10-18T07:13:20.019Z,1.80
2022-10-18T07:16:29.095Z,1.90
2022-10-18T07:19:38.987Z,1.50
2022-10-18T07:22:47.444Z,1.70
2022-10-18T07:25:55.841Z,2.17
2022-10-18T07:29:08.534Z,1.90
2022-10-18T07:32:17.030Z,1.83
2022-10-18T07:35:26.872Z,1.63
2022-10-18T07:38:35.428Z,1.60
2022-10-18T07:41:43.885Z,1.60
2022-10-18T07:44:52.294Z,1.70
2022-10-18T07:48:00.762Z,1.83
2022-10-18T07:51:11.202Z,1.50
2022-10-18T07:54:19.762Z,1.97
2022-10-18T07:57:28.207Z,1.70
2022-10-18T08:00:36.659Z,1.53
2022-10-18T08:03:45.136Z,2.00
2022-10-18T08:06:54.945Z,1.50
2022-10-18T08:10:03.423Z,1.70
2022-10-18T08:13:11.881Z,1.50
2022-10-18T08:16:23.143Z,1.67
2022-10-18T08:19:31.666Z,1.73
2022-10-18T08:22:41.491Z,1.87
2022-10-18T08:25:49.984Z,1.73
2022-10-18T08:29:17.718Z,1.80
2022-10-18T08:32:28.499Z,1.73
2022-10-18T08:35:36.964Z,1.53
2022-10-18T08:38:46.802Z,1.50
2022-10-18T08:42:24.755Z,1.30
2022-10-18T08:45:42.238Z,1.00
2022-10-18T08:48:53.415Z,1.00
2022-10-18T08:52:01.869Z,1.20
2022-10-18T08:55:18.420Z,1.20
2022-10-18T08:58:30.970Z,1.35
2022-10-18T09:01:50.075Z,1.30
2022-10-18T09:05:04.576Z,1.55
2022-10-18T09:08:48.794Z,1.20
2022-10-18T09:12:13.210Z,1.52
2022-10-18T09:15:32.735Z,1.60
2022-10-18T09:18:52.787Z,1.15
2022-10-18T09:22:09.689Z,1.20
2022-10-18T09:25:20.937Z,1.00
2022-10-18T09:28:38.996Z,1.00
2022-10-18T09:31:53.729Z,1.13
2022-10-18T09:35:06.980Z,1.50
2022-10-18T09:38:19.136Z,1.27
2022-10-18T09:41:31.465Z,1.73
2022-10-18T09:44:44.875Z,1.30
2022-10-18T09:48:04.389Z,1.27
2022-10-18T09:51:17.781Z,1.60
2022-10-18T09:54:33.084Z,1.00
2022-10-18T09:57:46.145Z,1.40
2022-10-18T10:00:57.259Z,1.57
2022-10-18T10:04:05.864Z,1.13
2022-10-18T10:07:17.885Z,1.47
2022-10-18T10:10:28.035Z,1.67
2022-10-18T10:13:36.474Z,1.40
2022-10-18T10:16:50.979Z,1.40
2022-10-18T10:20:03.750Z,1.20
2022-10-18T10:23:20.127Z,1.10
2022-10-18T10:26:31.972Z,1.42
2022-10-18T10:30:01.506Z,1.43
2022-10-18T10:33:34.971Z,1.30
2022-10-18T10:36:49.394Z,1.23
2022-10-18T10:40:18.866Z,1.10
2022-10-18T10:43:39.728Z,1.40
2022-10-18T10:46:50.727Z,1.20
2022-10-18T10:50:00.633Z,1.07
2022-10-18T10:53:40.082Z,1.50
2022-10-18T10:56:57.894Z,1.53
2022-10-18T11:00:06.926Z,1.37
2022-10-18T11:03:28.391Z,1.50
2022-10-18T11:06:53.164Z,1.13
2022-10-18T11:10:05.019Z,1.60
2022-10-18T11:13:25.990Z,1.30
2022-10-18T11:16:39.321Z,1.40
2022-10-18T11:20:03.794Z,1.17
2022-10-18T11:23:15.443Z,1.40
2022-10-18T11:26:45.529Z,1.33
2022-10-18T11:30:12.550Z,0.90
2022-10-18T11:33:49.474Z,1.20
2022-10-18T11:37:27.079Z,1.50
2022-10-18T11:41:03.624Z,1.13
2022-10-18T11:44:23.094Z,1.40
2022-10-18T11:47:42.109Z,1.10
2022-10-18T11:50:57.922Z,1.20
2022-10-18T11:54:25.781Z,1.47
2022-10-18T11:57:52.161Z,1.00
2022-10-18T12:01:07.671Z,1.00
2022-10-18T12:04:20.053Z,1.50
2022-10-18T12:07:32.762Z,1.47
2022-10-18T12:11:03.485Z,1.33
2022-10-18T12:14:24.289Z,1.20
2022-10-18T12:17:51.198Z,1.03
2022-10-18T12:21:00.918Z,0.97
2022-10-18T12:24:13.834Z,1.20
2022-10-18T12:27:41.456Z,1.10
2022-10-18T12:30:58.932Z,1.07
2022-10-18T12:34:20.350Z,1.30
2022-10-18T12:37:51.366Z,1.23
2022-10-18T12:41:01.196Z,0.87
2022-10-18T12:44:21.213Z,0.80
2022-10-18T12:47:32.255Z,1.33
2022-10-18T12:50:43.995Z,1.67
2022-10-18T12:54:10.703Z,1.30
2022-10-18T12:57:24.688Z,1.17
2022-10-18T13:01:03.089Z,1.07
2022-10-18T13:04:38.287Z,0.90
2022-10-18T13:07:46.790Z,1.13
2022-10-18T13:11:30.593Z,1.40
2022-10-18T13:15:07.302Z,1.50
2022-10-18T13:18:39.192Z,0.97
2022-10-18T13:25:35.121Z,1.07
2022-10-18T13:28:55.250Z,0.93
2022-10-18T13:32:08.826Z,1.03
2022-10-18T13:35:47.550Z,1.07
2022-10-18T13:39:06.835Z,1.47
2022-10-18T13:42:31.583Z,1.33
2022-10-18T13:45:56.590Z,1.20
2022-10-18T13:49:26.137Z,1.33
2022-10-18T13:52:52.993Z,1.10
2022-10-18T13:56:25.926Z,1.20
2022-10-18T14:00:00.254Z,1.40
2022-10-18T14:03:58.068Z,1.33
2022-10-18T14:07:08.921Z,1.43
2022-10-18T14:10:43.238Z,1.40
2022-10-18T14:13:59.980Z,1.27
2022-10-18T14:17:18.125Z,1.20
2022-10-18T14:20:30.154Z,1.13
2022-10-18T14:23:43.349Z,0.90
2022-10-18T14:27:13.954Z,1.53
2022-10-18T14:30:24.445Z,1.20
2022-10-18T14:33:35.682Z,1.10
2022-10-18T14:36:47.402Z,0.90
2022-10-18T14:39:56.269Z,0.70
2022-10-18T14:43:07.618Z,0.60
2022-10-18T14:46:24.188Z,0.70
2022-10-18T14:49:32.680Z,0.60
2022-10-18T14:52:41.176Z,0.90
2022-10-18T14:55:57.389Z,0.87
2022-10-18T14:59:18.735Z,0.90
2022-10-18T15:02:30.594Z,0.73
2022-10-18T15:05:39.354Z,1.07
2022-10-18T15:08:50.519Z,1.27
2022-10-18T15:12:00.782Z,1.20
2022-10-18T15:15:18.289Z,0.77
2022-10-18T15:21:37.920Z,0.80
2022-10-18T15:24:46.414Z,0.90
2022-10-18T15:27:56.781Z,1.10
2022-10-18T15:31:06.863Z,1.10
2022-10-18T15:34:21.155Z,1.67
2022-10-18T15:37:34.695Z,1.03
2022-10-18T15:40:44.303Z,0.80
2022-10-18T15:43:53.330Z,0.73
2022-10-18T15:47:21.077Z,0.80
2022-10-18T15:50:49.372Z,0.70
2022-10-18T15:53:57.827Z,0.60
2022-10-18T15:57:09.184Z,0.50
2022-10-18T16:00:20.956Z,0.67
2022-10-18T16:03:29.977Z,0.47
2022-10-18T16:06:40.071Z,0.70
2022-10-18T16:09:48.475Z,0.33
2022-10-18T16:12:56.999Z,0.50
2022-10-18T16:16:05.797Z,0.37
2022-10-18T16:19:15.879Z,0.40
2022-10-18T16:22:25.834Z,0.30
2022-10-18T16:25:34.261Z,0.47
2022-10-18T16:28:43.139Z,0.17
2022-10-18T16:31:53.649Z,0.30
2022-10-18T16:35:02.112Z,0.40
2022-10-18T16:38:23.937Z,0.30
2022-10-18T16:41:32.344Z,0.70
2022-10-18T16:44:40.749Z,0.20
2022-10-18T16:47:49.228Z,0.30
2022-10-18T16:50:58.521Z,0.37
2022-10-18T16:54:08.361Z,0.40
2022-10-18T16:57:16.781Z,0.20
2022-10-18T17:00:25.343Z,0.23
2022-10-18T17:03:33.801Z,0.23
2022-10-18T17:06:42.354Z,0.30
2022-10-18T17:09:52.267Z,0.10
2022-10-18T17:13:00.699Z,0.60
2022-10-18T17:16:23.858Z,0.53
2022-10-18T17:19:32.338Z,0.40
2022-10-18T17:22:47.455Z,0.37
2022-10-18T17:26:07.178Z,0.20
2022-10-18T17:29:26.171Z,0.30
2022-10-18T17:32:37.768Z,0.30
2022-10-18T17:35:49.584Z,0.30
2022-10-18T17:38:58.892Z,0.40
2022-10-18T17:42:12.221Z,0.43
2022-10-18T17:45:21.377Z,0.53
2022-10-18T17:48:29.842Z,0.50
2022-10-18T17:51:38.388Z,0.47
2022-10-18T17:54:48.030Z,0.23
2022-10-18T17:57:57.982Z,0.30
2022-10-18T18:01:12.005Z,0.67
2022-10-18T18:04:20.468Z,0.50
2022-10-18T18:07:29.497Z,0.43
2022-10-18T18:10:38.564Z,0.70
2022-10-18T18:13:49.107Z,0.40
2022-10-18T18:16:57.927Z,0.67
2022-10-18T18:20:08.100Z,0.40
2022-10-18T18:23:16.499Z,0.53
2022-10-18T18:26:25.391Z,0.50
2022-10-18T18:29:39.672Z,0.63
2022-10-18T18:32:51.801Z,0.60
2022-10-18T18:36:03.316Z,0.83
2022-10-18T18:39:24.260Z,0.60
2022-10-18T18:42:33.962Z,0.60
2022-10-18T18:45:57.586Z,0.43
2022-10-18T18:49:10.774Z,0.60
2022-10-18T18:52:21.548Z,0.60
2022-10-18T18:55:40.025Z,0.70
2022-10-18T18:58:52.303Z,0.67
2022-10-18T19:02:12.818Z,0.60
2022-10-18T19:08:39.917Z,0.60
2022-10-18T19:11:49.758Z,0.60
2022-10-18T19:15:00.954Z,0.40
2022-10-18T19:18:13.266Z,0.47
2022-10-18T19:21:31.742Z,0.20
2022-10-18T19:24:40.766Z,0.30
2022-10-18T19:27:49.170Z,0.40
2022-10-18T19:31:04.647Z,0.20
2022-10-18T19:34:17.499Z,0.40
2022-10-18T19:37:26.391Z,0.30
2022-10-18T19:40:34.861Z,0.40
2022-10-18T19:43:43.322Z,0.30
2022-10-18T19:46:52.145Z,0.40
2022-10-18T19:50:02.026Z,0.20
2022-10-18T19:53:10.504Z,0.30
2022-10-18T19:56:20.891Z,0.20
2022-10-18T19:59:29.488Z,0.30
2022-10-18T20:02:37.998Z,0.30
2022-10-18T20:05:47.915Z,0.20
2022-10-18T20:08:57.016Z,0.33
2022-10-18T20:12:05.704Z,0.37
2022-10-18T20:15:14.247Z,0.30
2022-10-18T20:18:22.646Z,0.30
2022-10-18T20:21:35.668Z,0.20
2022-10-18T20:24:44.204Z,0.30
2022-10-18T20:27:52.768Z,0.37
2022-10-18T20:31:02.921Z,0.30
2022-10-18T20:34:13.211Z,0.43
2022-10-18T20:37:23.009Z,0.63
2022-10-18T20:40:31.480Z,0.40
2022-10-18T20:43:40.659Z,0.60
2022-10-18T20:46:49.100Z,0.57
2022-10-18T20:49:57.565Z,0.50
2022-10-18T20:53:07.362Z,0.40
2022-10-18T20:56:17.184Z,0.60
2022-10-18T20:59:25.692Z,0.30
2022-10-18T21:02:34.105Z,0.57
2022-10-18T21:05:42.553Z,0.60
2022-10-18T21:08:56.271Z,0.47
2022-10-18T21:12:04.907Z,0.50
2022-10-18T21:15:13.518Z,0.30
2022-10-18T21:18:25.161Z,0.30
2022-10-18T21:21:33.970Z,0.40
2022-10-18T21:24:45.244Z,0.57
2022-10-18T21:27:53.695Z,0.30
2022-10-18T21:31:13.861Z,0.30
2022-10-18T21:34:22.442Z,0.57
2022-10-18T21:37:31.271Z,0.37
2022-10-18T21:40:44.655Z,0.43
2022-10-18T21:43:54.884Z,0.40
2022-10-18T21:47:03.333Z,0.60
2022-10-18T21:50:11.926Z,0.60
2022-10-18T21:53:20.664Z,0.70
2022-10-18T21:56:32.116Z,0.50
2022-10-18T21:59:40.592Z,0.50
2022-10-18T22:02:49.038Z,0.60
2022-10-18T22:06:02.411Z,0.40
2022-10-18T22:09:10.851Z,0.47
2022-10-18T22:12:20.690Z,0.40
2022-10-18T22:15:29.197Z,0.37
2022-10-18T22:18:37.656Z,0.47
2022-10-18T22:21:46.098Z,0.20
2022-10-18T22:24:54.499Z,0.47
2022-10-18T22:28:04.480Z,1.30
2022-10-18T22:31:18.054Z,0.60
2022-10-18T22:34:27.973Z,0.60
2022-10-18T22:37:36.657Z,0.60
2022-10-18T22:40:45.394Z,0.30
2022-10-18T22:43:57.315Z,0.60
2022-10-18T22:47:08.173Z,0.63
2022-10-18T22:50:16.660Z,0.60
2022-10-18T22:53:25.332Z,0.50
2022-10-18T22:56:33.778Z,0.40
2022-10-18T22:59:43.607Z,0.73
2022-10-18T23:02:51.994Z,0.50
2022-10-18T23:06:00.970Z,0.40
2022-10-18T23:09:11.428Z,0.47
2022-10-18T23:12:19.891Z,0.30
2022-10-18T23:15:29.797Z,0.57
2022-10-18T23:21:48.183Z,0.50
2022-10-18T23:24:56.655Z,0.37
2022-10-18T23:28:05.119Z,0.50
2022-10-18T23:31:18.039Z,0.40
2022-10-18T23:34:26.903Z,0.57
2022-10-18T23:37:35.785Z,0.50
2022-10-18T23:40:44.509Z,0.50
2022-10-18T23:43:53.250Z,0.40
2022-10-18T23:47:03.144Z,0.40
2022-10-18T23:50:11.685Z,0.60
2022-10-18T23:53:20.686Z,0.37
2022-10-18T23:56:29.232Z,0.67
2022-10-18T23:59:37.720Z,0.50
